Terminal Aerodrome Forecast
Issued by NWS Bismarck, ND

Home | Current Version | Previous Version | Text Only | Print | Product List | Glossary Off
Versions: 1 2 3 4 5 6 7 8 9 10 11 12 13 14 15 16 17 18 19 20 21 22

000
FTUS43 KBIS 190400 AAD
TAFISN
TAF AMD
KISN 190406Z 1904/1924 24003KT 3SM BR SKC
      TEMPO 1904/1905 1/2SM FG
     FM190500 28009KT P6SM VCSH BKN060
     FM190600 25015G21KT P6SM SCT090
     FM191500 28019G26KT P6SM FEW150=

USA.gov is the U.S. government's official web portal to all federal, state and local government web resources and services.